Meteghan, Canada
Current Conditions -  °F | °C
As of 7:00 PM on Thursday 20 Nov 2014 (Local Time) from CYQI Reporting Station
Broken Clouds Broken Clouds  
Wind Chill: 37°   Ceiling: 4000
Heat Index: 45°   Visibility: 12mi
Dew Point: 37°   Wind: 16mph
Humidity: 76%   Direction: 240°WSW
Pressure: 29.75"   Gusts: 24mph
Location:  44.18°N, 66.15°W
Report Text: CYQI 202300Z 24014G21KT 12SM BKN040 07/03 A2975 RMK SC5 SLP074
Loading
Personal Weather Stations






























Interactive Weather Map New forecast layout! Learn more

10-Day Weather Forecast

Advertisements
Track Severe Weather on mobile